sensor_id;sensor_type;location;lat;lon;timestamp;pressure;altitude;pressure_sealevel;temperature;humidity
9335;BME280;4706;41.844;26.082;2022-07-05T00:02:04;100784.38;;;25.39;43.44
9335;BME280;4706;41.844;26.082;2022-07-05T00:04:30;100791.19;;;25.34;43.50
9335;BME280;4706;41.844;26.082;2022-07-05T00:06:56;100787.16;;;25.28;43.52
9335;BME280;4706;41.844;26.082;2022-07-05T00:09:55;100787.97;;;25.32;43.86
9335;BME280;4706;41.844;26.082;2022-07-05T00:12:27;100795.19;;;25.26;43.95
9335;BME280;4706;41.844;26.082;2022-07-05T00:14:54;100800.00;;;25.26;43.98
9335;BME280;4706;41.844;26.082;2022-07-05T00:17:20;100793.97;;;25.24;44.11
9335;BME280;4706;41.844;26.082;2022-07-05T00:19:45;100783.88;;;25.15;44.21
9335;BME280;4706;41.844;26.082;2022-07-05T00:22:11;100774.56;;;25.08;44.33
9335;BME280;4706;41.844;26.082;2022-07-05T00:24:37;100794.25;;;25.04;44.45
9335;BME280;4706;41.844;26.082;2022-07-05T00:27:03;100797.84;;;25.05;44.73
9335;BME280;4706;41.844;26.082;2022-07-05T00:29:29;100793.47;;;25.07;44.37
9335;BME280;4706;41.844;26.082;2022-07-05T00:31:54;100796.66;;;25.02;44.58
9335;BME280;4706;41.844;26.082;2022-07-05T00:34:20;100800.25;;;24.95;44.68
9335;BME280;4706;41.844;26.082;2022-07-05T00:36:45;100806.69;;;25.00;44.49
9335;BME280;4706;41.844;26.082;2022-07-05T00:39:12;100811.06;;;24.90;44.73
9335;BME280;4706;41.844;26.082;2022-07-05T00:41:37;100808.56;;;24.78;45.17
9335;BME280;4706;41.844;26.082;2022-07-05T00:44:06;100807.75;;;24.74;45.09
9335;BME280;4706;41.844;26.082;2022-07-05T00:46:33;100800.06;;;24.70;44.85
9335;BME280;4706;41.844;26.082;2022-07-05T00:48:59;100795.25;;;24.67;45.24
9335;BME280;4706;41.844;26.082;2022-07-05T00:51:26;100801.22;;;24.62;45.24
9335;BME280;4706;41.844;26.082;2022-07-05T00:53:52;100795.59;;;24.59;45.16
9335;BME280;4706;41.844;26.082;2022-07-05T00:56:19;100794.00;;;24.61;45.60
9335;BME280;4706;41.844;26.082;2022-07-05T00:58:44;100802.38;;;24.54;45.69
9335;BME280;4706;41.844;26.082;2022-07-05T01:01:11;100797.56;;;24.55;45.95
9335;BME280;4706;41.844;26.082;2022-07-05T01:03:36;100801.59;;;24.57;45.84
9335;BME280;4706;41.844;26.082;2022-07-05T01:06:06;100800.75;;;24.50;45.61
9335;BME280;4706;41.844;26.082;2022-07-05T01:08:33;100804.72;;;24.41;46.16
9335;BME280;4706;41.844;26.082;2022-07-05T01:11:00;100795.38;;;24.34;46.02
9335;BME280;4706;41.844;26.082;2022-07-05T01:13:26;100784.97;;;24.38;46.16
9335;BME280;4706;41.844;26.082;2022-07-05T01:15:52;100780.91;;;24.32;45.92
9335;BME280;4706;41.844;26.082;2022-07-05T01:18:20;100789.19;;;24.17;46.20
9335;BME280;4706;41.844;26.082;2022-07-05T01:20:48;100788.75;;;24.08;46.42
9335;BME280;4706;41.844;26.082;2022-07-05T01:23:14;100787.13;;;24.11;46.53
9335;BME280;4706;41.844;26.082;2022-07-05T01:25:40;100786.38;;;24.14;46.64
9335;BME280;4706;41.844;26.082;2022-07-05T01:28:06;100793.19;;;24.13;46.72
9335;BME280;4706;41.844;26.082;2022-07-05T01:30:34;100791.63;;;24.15;46.89
9335;BME280;4706;41.844;26.082;2022-07-05T01:33:01;100785.56;;;24.13;46.93
9335;BME280;4706;41.844;26.082;2022-07-05T01:35:27;100795.22;;;24.16;47.25
9335;BME280;4706;41.844;26.082;2022-07-05T01:37:53;100786.78;;;24.16;47.17
9335;BME280;4706;41.844;26.082;2022-07-05T01:40:19;100794.47;;;24.19;47.07
9335;BME280;4706;41.844;26.082;2022-07-05T01:42:46;100781.97;;;24.16;47.09
9335;BME280;4706;41.844;26.082;2022-07-05T01:45:12;100793.59;;;24.11;46.88
9335;BME280;4706;41.844;26.082;2022-07-05T01:47:43;100787.13;;;24.07;47.29
9335;BME280;4706;41.844;26.082;2022-07-05T01:50:12;100776.34;;;24.16;47.46
9335;BME280;4706;41.844;26.082;2022-07-05T01:52:42;100771.88;;;24.08;47.23
9335;BME280;4706;41.844;26.082;2022-07-05T01:55:09;100780.28;;;24.05;47.51
9335;BME280;4706;41.844;26.082;2022-07-05T01:57:34;100778.66;;;24.04;47.61
9335;BME280;4706;41.844;26.082;2022-07-05T02:00:00;100788.66;;;24.01;47.37
9335;BME280;4706;41.844;26.082;2022-07-05T02:02:26;100775.69;;;23.86;47.47
9335;BME280;4706;41.844;26.082;2022-07-05T02:04:51;100782.53;;;23.92;47.56
9335;BME280;4706;41.844;26.082;2022-07-05T02:07:18;100783.38;;;23.92;47.60
9335;BME280;4706;41.844;26.082;2022-07-05T02:09:44;100793.03;;;23.95;47.59
9335;BME280;4706;41.844;26.082;2022-07-05T02:12:10;100776.06;;;23.84;47.78
9335;BME280;4706;41.844;26.082;2022-07-05T02:14:35;100779.75;;;23.92;47.70
9335;BME280;4706;41.844;26.082;2022-07-05T02:17:01;100794.63;;;23.92;47.74
9335;BME280;4706;41.844;26.082;2022-07-05T02:19:27;100795.72;;;23.84;48.07
9335;BME280;4706;41.844;26.082;2022-07-05T02:21:52;100788.81;;;23.74;48.12
9335;BME280;4706;41.844;26.082;2022-07-05T02:24:20;100774.22;;;23.65;48.83
9335;BME280;4706;41.844;26.082;2022-07-05T02:26:47;100769.69;;;23.54;48.91
9335;BME280;4706;41.844;26.082;2022-07-05T02:29:13;100784.25;;;23.63;48.83
9335;BME280;4706;41.844;26.082;2022-07-05T02:31:38;100784.41;;;23.73;48.94
9335;BME280;4706;41.844;26.082;2022-07-05T02:34:04;100777.91;;;23.69;49.19
9335;BME280;4706;41.844;26.082;2022-07-05T02:36:30;100779.53;;;23.70;49.14
9335;BME280;4706;41.844;26.082;2022-07-05T02:38:55;100791.59;;;23.71;48.85
9335;BME280;4706;41.844;26.082;2022-07-05T02:41:21;100788.66;;;23.64;48.72
9335;BME280;4706;41.844;26.082;2022-07-05T02:43:46;100782.22;;;23.60;48.88
9335;BME280;4706;41.844;26.082;2022-07-05T02:46:12;100798.28;;;23.63;49.03
9335;BME280;4706;41.844;26.082;2022-07-05T02:48:38;100787.75;;;23.52;49.42
9335;BME280;4706;41.844;26.082;2022-07-05T02:51:04;100793.16;;;23.68;49.52
9335;BME280;4706;41.844;26.082;2022-07-05T02:53:30;100791.06;;;23.65;49.25
9335;BME280;4706;41.844;26.082;2022-07-05T02:55:56;100795.59;;;23.70;49.47
9335;BME280;4706;41.844;26.082;2022-07-05T02:58:21;100787.06;;;23.63;49.88
9335;BME280;4706;41.844;26.082;2022-07-05T03:00:48;100782.31;;;23.67;49.53
9335;BME280;4706;41.844;26.082;2022-07-05T03:03:15;100789.94;;;23.66;49.80
9335;BME280;4706;41.844;26.082;2022-07-05T03:05:41;100779.00;;;23.61;49.79
9335;BME280;4706;41.844;26.082;2022-07-05T03:08:06;100784.63;;;23.61;49.84
9335;BME280;4706;41.844;26.082;2022-07-05T03:10:33;100791.78;;;23.55;49.79
9335;BME280;4706;41.844;26.082;2022-07-05T03:13:00;100789.31;;;23.50;49.81
9335;BME280;4706;41.844;26.082;2022-07-05T03:15:26;100794.50;;;23.48;50.14
9335;BME280;4706;41.844;26.082;2022-07-05T03:17:51;100787.56;;;23.38;50.37
9335;BME280;4706;41.844;26.082;2022-07-05T03:20:17;100792.06;;;23.46;50.17
9335;BME280;4706;41.844;26.082;2022-07-05T03:22:43;100787.28;;;23.47;50.19
9335;BME280;4706;41.844;26.082;2022-07-05T03:25:08;100786.50;;;23.50;50.36
9335;BME280;4706;41.844;26.082;2022-07-05T03:27:34;100790.19;;;23.58;49.96
9335;BME280;4706;41.844;26.082;2022-07-05T03:30:01;100776.50;;;23.52;49.69
9335;BME280;4706;41.844;26.082;2022-07-05T03:32:27;100779.75;;;23.58;49.86
9335;BME280;4706;41.844;26.082;2022-07-05T03:34:52;100789.81;;;23.59;49.78
9335;BME280;4706;41.844;26.082;2022-07-05T03:37:18;100785.69;;;23.49;50.24
9335;BME280;4706;41.844;26.082;2022-07-05T03:39:43;100791.78;;;23.55;50.05
9335;BME280;4706;41.844;26.082;2022-07-05T03:42:09;100791.00;;;23.58;50.21
9335;BME280;4706;41.844;26.082;2022-07-05T03:44:34;100785.19;;;23.74;50.30
9335;BME280;4706;41.844;26.082;2022-07-05T03:47:00;100774.81;;;23.78;49.87
9335;BME280;4706;41.844;26.082;2022-07-05T03:49:26;100770.41;;;23.81;49.77
9335;BME280;4706;41.844;26.082;2022-07-05T03:51:51;100755.19;;;23.82;49.74
9335;BME280;4706;41.844;26.082;2022-07-05T03:54:17;100770.88;;;23.86;49.51
9335;BME280;4706;41.844;26.082;2022-07-05T03:56:43;100776.56;;;23.93;49.82
9335;BME280;4706;41.844;26.082;2022-07-05T03:59:08;100775.88;;;24.07;49.92
9335;BME280;4706;41.844;26.082;2022-07-05T04:01:34;100773.91;;;24.11;49.38
9335;BME280;4706;41.844;26.082;2022-07-05T04:04:00;100764.72;;;24.18;49.35
9335;BME280;4706;41.844;26.082;2022-07-05T04:06:25;100778.19;;;24.39;48.96
9335;BME280;4706;41.844;26.082;2022-07-05T04:08:51;100783.91;;;24.53;48.64
9335;BME280;4706;41.844;26.082;2022-07-05T04:11:17;100770.28;;;24.59;48.52
9335;BME280;4706;41.844;26.082;2022-07-05T04:13:43;100782.06;;;24.82;48.39
9335;BME280;4706;41.844;26.082;2022-07-05T04:16:09;100779.28;;;24.89;48.05
9335;BME280;4706;41.844;26.082;2022-07-05T04:18:35;100782.56;;;24.99;47.54
9335;BME280;4706;41.844;26.082;2022-07-05T04:21:01;100788.31;;;25.16;47.24
9335;BME280;4706;41.844;26.082;2022-07-05T04:23:27;100779.13;;;25.34;46.98
9335;BME280;4706;41.844;26.082;2022-07-05T04:25:53;100782.38;;;25.43;46.55
9335;BME280;4706;41.844;26.082;2022-07-05T04:28:19;100783.22;;;25.51;46.77
9335;BME280;4706;41.844;26.082;2022-07-05T04:30:45;100784.03;;;25.58;46.34
9335;BME280;4706;41.844;26.082;2022-07-05T04:33:10;100782.06;;;25.73;46.07
9335;BME280;4706;41.844;26.082;2022-07-05T04:35:36;100778.91;;;25.92;45.67
9335;BME280;4706;41.844;26.082;2022-07-05T04:38:01;100786.53;;;26.06;45.25
9335;BME280;4706;41.844;26.082;2022-07-05T04:40:27;100789.38;;;26.17;44.77
9335;BME280;4706;41.844;26.082;2022-07-05T04:42:53;100775.69;;;26.23;44.59
9335;BME280;4706;41.844;26.082;2022-07-05T04:45:18;100778.50;;;26.37;44.81
9335;BME280;4706;41.844;26.082;2022-07-05T04:47:44;100785.38;;;26.50;44.10
9335;BME280;4706;41.844;26.082;2022-07-05T04:50:10;100784.94;;;26.62;43.83
9335;BME280;4706;41.844;26.082;2022-07-05T04:52:35;100786.94;;;26.69;43.49
9335;BME280;4706;41.844;26.082;2022-07-05T04:55:01;100789.38;;;26.71;43.40
9335;BME280;4706;41.844;26.082;2022-07-05T04:57:27;100789.31;;;26.81;43.30
9335;BME280;4706;41.844;26.082;2022-07-05T04:59:53;100782.03;;;26.95;43.00
9335;BME280;4706;41.844;26.082;2022-07-05T05:02:19;100786.44;;;27.10;42.55
9335;BME280;4706;41.844;26.082;2022-07-05T05:04:45;100779.16;;;27.23;42.34
9335;BME280;4706;41.844;26.082;2022-07-05T05:07:10;100781.91;;;27.34;42.24
9335;BME280;4706;41.844;26.082;2022-07-05T05:09:36;100789.09;;;27.49;41.77
9335;BME280;4706;41.844;26.082;2022-07-05T05:12:02;100787.81;;;27.65;41.75
9335;BME280;4706;41.844;26.082;2022-07-05T05:14:27;100789.41;;;27.76;41.74
9335;BME280;4706;41.844;26.082;2022-07-05T05:16:53;100789.28;;;27.91;41.11
9335;BME280;4706;41.844;26.082;2022-07-05T05:19:18;100783.22;;;27.92;40.95
9335;BME280;4706;41.844;26.082;2022-07-05T05:21:44;100790.75;;;28.09;40.93
9335;BME280;4706;41.844;26.082;2022-07-05T05:24:10;100784.56;;;28.25;40.92
9335;BME280;4706;41.844;26.082;2022-07-05T05:26:35;100789.66;;;28.48;40.85
9335;BME280;4706;41.844;26.082;2022-07-05T05:29:02;100790.69;;;28.65;40.23
9335;BME280;4706;41.844;26.082;2022-07-05T05:31:28;100788.13;;;28.82;39.96
9335;BME280;4706;41.844;26.082;2022-07-05T05:33:53;100794.50;;;28.89;39.83
9335;BME280;4706;41.844;26.082;2022-07-05T05:36:19;100787.91;;;28.99;39.52
9335;BME280;4706;41.844;26.082;2022-07-05T05:38:44;100790.22;;;29.12;39.60
9335;BME280;4706;41.844;26.082;2022-07-05T05:41:10;100780.34;;;29.23;39.48
9335;BME280;4706;41.844;26.082;2022-07-05T05:43:35;100791.22;;;29.28;39.45
9335;BME280;4706;41.844;26.082;2022-07-05T05:46:03;100800.09;;;29.31;39.86
9335;BME280;4706;41.844;26.082;2022-07-05T05:48:28;100791.97;;;29.33;39.43
9335;BME280;4706;41.844;26.082;2022-07-05T05:50:53;100805.06;;;29.53;39.10
9335;BME280;4706;41.844;26.082;2022-07-05T05:53:19;100796.91;;;29.56;39.27
9335;BME280;4706;41.844;26.082;2022-07-05T05:55:45;100791.09;;;29.70;39.18
9335;BME280;4706;41.844;26.082;2022-07-05T05:58:18;100798.63;;;29.80;38.95
9335;BME280;4706;41.844;26.082;2022-07-05T06:00:45;100797.59;;;29.94;38.51
9335;BME280;4706;41.844;26.082;2022-07-05T06:03:14;100786.53;;;30.03;37.70
9335;BME280;4706;41.844;26.082;2022-07-05T06:05:40;100796.53;;;30.11;37.83
9335;BME280;4706;41.844;26.082;2022-07-05T06:08:06;100794.59;;;30.32;37.96
9335;BME280;4706;41.844;26.082;2022-07-05T06:10:33;100802.72;;;30.53;37.50
9335;BME280;4706;41.844;26.082;2022-07-05T06:13:01;100778.97;;;30.67;37.43
9335;BME280;4706;41.844;26.082;2022-07-05T06:15:28;100793.53;;;30.92;36.70
9335;BME280;4706;41.844;26.082;2022-07-05T06:17:53;100799.78;;;31.04;36.43
9335;BME280;4706;41.844;26.082;2022-07-05T06:20:24;100796.22;;;31.19;35.66
9335;BME280;4706;41.844;26.082;2022-07-05T06:22:51;100792.34;;;31.30;36.17
9335;BME280;4706;41.844;26.082;2022-07-05T06:25:17;100784.84;;;31.39;35.28
9335;BME280;4706;41.844;26.082;2022-07-05T06:27:47;100788.78;;;31.46;34.84
9335;BME280;4706;41.844;26.082;2022-07-05T06:30:16;100788.00;;;31.45;35.45
9335;BME280;4706;41.844;26.082;2022-07-05T06:32:43;100782.94;;;31.53;34.85
9335;BME280;4706;41.844;26.082;2022-07-05T06:35:09;100781.78;;;31.66;34.74
9335;BME280;4706;41.844;26.082;2022-07-05T06:40:09;100771.34;;;31.63;34.88
9335;BME280;4706;41.844;26.082;2022-07-05T06:42:35;100756.31;;;31.79;34.25
9335;BME280;4706;41.844;26.082;2022-07-05T06:45:01;100779.41;;;31.81;33.47
9335;BME280;4706;41.844;26.082;2022-07-05T06:47:26;100772.47;;;31.86;34.21
9335;BME280;4706;41.844;26.082;2022-07-05T06:49:52;100762.03;;;31.96;32.67
9335;BME280;4706;41.844;26.082;2022-07-05T06:52:17;100771.22;;;32.03;33.24
9335;BME280;4706;41.844;26.082;2022-07-05T06:54:43;100771.66;;;32.18;33.87
9335;BME280;4706;41.844;26.082;2022-07-05T06:57:08;100765.94;;;32.34;34.02
9335;BME280;4706;41.844;26.082;2022-07-05T06:59:34;100776.00;;;32.55;33.20
9335;BME280;4706;41.844;26.082;2022-07-05T07:01:59;100772.09;;;32.49;32.52
9335;BME280;4706;41.844;26.082;2022-07-05T07:04:25;100772.41;;;32.68;31.97
9335;BME280;4706;41.844;26.082;2022-07-05T07:06:52;100775.50;;;32.73;32.54
9335;BME280;4706;41.844;26.082;2022-07-05T07:09:17;100770.84;;;32.79;31.92
9335;BME280;4706;41.844;26.082;2022-07-05T07:11:48;100769.50;;;33.00;31.13
9335;BME280;4706;41.844;26.082;2022-07-05T07:14:15;100768.19;;;33.18;31.35
9335;BME280;4706;41.844;26.082;2022-07-05T07:16:42;100771.03;;;33.18;30.89
9335;BME280;4706;41.844;26.082;2022-07-05T07:19:08;100767.97;;;33.38;30.69
9335;BME280;4706;41.844;26.082;2022-07-05T07:21:33;100764.25;;;33.53;29.79
9335;BME280;4706;41.844;26.082;2022-07-05T07:23:59;100760.03;;;33.71;29.35
9335;BME280;4706;41.844;26.082;2022-07-05T07:26:26;100761.63;;;33.84;29.25
9335;BME280;4706;41.844;26.082;2022-07-05T07:28:52;100762.53;;;34.07;27.94
9335;BME280;4706;41.844;26.082;2022-07-05T07:31:17;100759.63;;;34.32;27.10
9335;BME280;4706;41.844;26.082;2022-07-05T07:33:43;100734.72;;;34.33;27.22
9335;BME280;4706;41.844;26.082;2022-07-05T07:36:08;100757.59;;;34.68;25.86
9335;BME280;4706;41.844;26.082;2022-07-05T07:38:34;100747.53;;;34.76;25.93
9335;BME280;4706;41.844;26.082;2022-07-05T07:40:59;100748.44;;;34.95;26.59
9335;BME280;4706;41.844;26.082;2022-07-05T07:43:28;100750.63;;;35.13;24.72
9335;BME280;4706;41.844;26.082;2022-07-05T07:45:53;100744.91;;;35.13;24.42
9335;BME280;4706;41.844;26.082;2022-07-05T07:48:19;100751.75;;;35.37;24.13
9335;BME280;4706;41.844;26.082;2022-07-05T07:50:46;100746.78;;;35.60;23.41
9335;BME280;4706;41.844;26.082;2022-07-05T07:53:11;100753.69;;;35.71;21.79
9335;BME280;4706;41.844;26.082;2022-07-05T07:55:37;100742.25;;;35.81;21.77
9335;BME280;4706;41.844;26.082;2022-07-05T07:58:02;100746.69;;;35.72;21.83
9335;BME280;4706;41.844;26.082;2022-07-05T08:00:29;100743.22;;;35.78;22.16
9335;BME280;4706;41.844;26.082;2022-07-05T08:02:54;100754.66;;;35.78;22.04
9335;BME280;4706;41.844;26.082;2022-07-05T08:05:20;100746.88;;;35.78;22.01
9335;BME280;4706;41.844;26.082;2022-07-05T08:07:45;100744.78;;;35.79;22.11
9335;BME280;4706;41.844;26.082;2022-07-05T08:10:11;100749.66;;;35.28;21.54
9335;BME280;4706;41.844;26.082;2022-07-05T08:12:37;100740.63;;;35.39;22.96
9335;BME280;4706;41.844;26.082;2022-07-05T08:15:03;100734.16;;;35.48;22.90
9335;BME280;4706;41.844;26.082;2022-07-05T08:17:28;100746.06;;;35.78;22.19
9335;BME280;4706;41.844;26.082;2022-07-05T08:19:54;100743.56;;;35.89;21.36
9335;BME280;4706;41.844;26.082;2022-07-05T08:22:38;100747.75;;;36.06;21.42
9335;BME280;4706;41.844;26.082;2022-07-05T08:25:04;100751.25;;;36.01;20.89
9335;BME280;4706;41.844;26.082;2022-07-05T08:27:30;100742.06;;;36.15;21.02
9335;BME280;4706;41.844;26.082;2022-07-05T08:29:55;100742.22;;;36.12;20.47
9335;BME280;4706;41.844;26.082;2022-07-05T08:32:21;100736.34;;;36.15;21.29
9335;BME280;4706;41.844;26.082;2022-07-05T08:34:46;100732.69;;;36.24;21.36
9335;BME280;4706;41.844;26.082;2022-07-05T08:37:12;100727.13;;;36.39;21.22
9335;BME280;4706;41.844;26.082;2022-07-05T08:39:38;100736.69;;;36.27;20.94
9335;BME280;4706;41.844;26.082;2022-07-05T08:42:10;100739.69;;;36.23;20.92
9335;BME280;4706;41.844;26.082;2022-07-05T08:44:38;100728.56;;;36.34;20.69
9335;BME280;4706;41.844;26.082;2022-07-05T08:47:08;100722.38;;;36.45;20.73
9335;BME280;4706;41.844;26.082;2022-07-05T08:49:34;100716.97;;;36.65;20.88
9335;BME280;4706;41.844;26.082;2022-07-05T08:52:02;100726.31;;;36.93;21.55
9335;BME280;4706;41.844;26.082;2022-07-05T08:54:30;100713.84;;;37.24;21.55
9335;BME280;4706;41.844;26.082;2022-07-05T08:56:55;100718.88;;;37.38;20.90
9335;BME280;4706;41.844;26.082;2022-07-05T08:59:21;100713.81;;;37.33;20.48
9335;BME280;4706;41.844;26.082;2022-07-05T09:01:47;100720.38;;;37.25;20.56
9335;BME280;4706;41.844;26.082;2022-07-05T09:04:16;100723.31;;;37.06;19.99
9335;BME280;4706;41.844;26.082;2022-07-05T09:06:46;100721.22;;;36.88;20.05
9335;BME280;4706;41.844;26.082;2022-07-05T09:09:12;100714.69;;;37.06;20.79
9335;BME280;4706;41.844;26.082;2022-07-05T09:11:40;100714.75;;;37.39;20.84
9335;BME280;4706;41.844;26.082;2022-07-05T09:14:19;100714.75;;;37.73;20.97
9335;BME280;4706;41.844;26.082;2022-07-05T09:16:45;100715.81;;;37.94;20.06
9335;BME280;4706;41.844;26.082;2022-07-05T09:19:11;100719.44;;;38.03;19.89
9335;BME280;4706;41.844;26.082;2022-07-05T09:21:37;100712.91;;;38.18;20.07
9335;BME280;4706;41.844;26.082;2022-07-05T09:24:04;100712.81;;;38.12;19.50
9335;BME280;4706;41.844;26.082;2022-07-05T09:26:41;100715.38;;;38.10;20.03
9335;BME280;4706;41.844;26.082;2022-07-05T09:29:10;100709.19;;;38.26;20.79
9335;BME280;4706;41.844;26.082;2022-07-05T09:31:41;100715.56;;;38.30;18.90
9335;BME280;4706;41.844;26.082;2022-07-05T09:34:17;100714.22;;;38.17;19.72
9335;BME280;4706;41.844;26.082;2022-07-05T09:36:50;100703.06;;;37.85;19.15
9335;BME280;4706;41.844;26.082;2022-07-05T09:39:18;100700.91;;;37.71;19.61
9335;BME280;4706;41.844;26.082;2022-07-05T09:41:44;100693.94;;;37.96;20.32
9335;BME280;4706;41.844;26.082;2022-07-05T09:44:09;100672.63;;;37.88;19.40
9335;BME280;4706;41.844;26.082;2022-07-05T09:46:35;100683.44;;;37.93;19.38
9335;BME280;4706;41.844;26.082;2022-07-05T09:49:00;100685.50;;;37.93;19.68
9335;BME280;4706;41.844;26.082;2022-07-05T09:51:26;100677.31;;;38.00;19.82
9335;BME280;4706;41.844;26.082;2022-07-05T09:53:57;100689.22;;;38.08;19.35
9335;BME280;4706;41.844;26.082;2022-07-05T09:56:24;100674.63;;;37.97;19.90
9335;BME280;4706;41.844;26.082;2022-07-05T09:58:54;100671.72;;;37.73;19.90
9335;BME280;4706;41.844;26.082;2022-07-05T10:01:30;100666.91;;;37.79;19.58
9335;BME280;4706;41.844;26.082;2022-07-05T10:04:00;100678.47;;;37.60;19.78
9335;BME280;4706;41.844;26.082;2022-07-05T10:06:27;100670.53;;;37.55;19.75
9335;BME280;4706;41.844;26.082;2022-07-05T10:08:53;100669.63;;;37.49;20.41
9335;BME280;4706;41.844;26.082;2022-07-05T10:11:20;100675.25;;;37.67;20.06
9335;BME280;4706;41.844;26.082;2022-07-05T10:13:51;100673.47;;;38.03;19.67
9335;BME280;4706;41.844;26.082;2022-07-05T10:16:19;100675.91;;;37.96;19.83
9335;BME280;4706;41.844;26.082;2022-07-05T10:18:45;100671.16;;;37.83;19.24
9335;BME280;4706;41.844;26.082;2022-07-05T10:21:14;100668.47;;;37.89;19.38
9335;BME280;4706;41.844;26.082;2022-07-05T10:23:45;100658.88;;;37.92;19.26
9335;BME280;4706;41.844;26.082;2022-07-05T10:26:12;100658.97;;;37.98;19.05
9335;BME280;4706;41.844;26.082;2022-07-05T10:28:40;100652.13;;;38.19;19.20
9335;BME280;4706;41.844;26.082;2022-07-05T10:31:09;100646.47;;;38.49;18.71
9335;BME280;4706;41.844;26.082;2022-07-05T10:33:35;100635.44;;;38.77;18.41
9335;BME280;4706;41.844;26.082;2022-07-05T10:36:01;100642.91;;;39.13;19.19
9335;BME280;4706;41.844;26.082;2022-07-05T10:38:28;100647.63;;;39.46;19.09
9335;BME280;4706;41.844;26.082;2022-07-05T10:40:57;100637.31;;;39.74;18.65
9335;BME280;4706;41.844;26.082;2022-07-05T10:43:24;100629.13;;;39.88;17.54
9335;BME280;4706;41.844;26.082;2022-07-05T10:45:51;100620.94;;;39.66;17.97
9335;BME280;4706;41.844;26.082;2022-07-05T10:48:23;100627.94;;;39.79;17.73
9335;BME280;4706;41.844;26.082;2022-07-05T10:53:20;100609.41;;;40.27;17.88
9335;BME280;4706;41.844;26.082;2022-07-05T11:00:44;100595.81;;;38.81;17.17
9335;BME280;4706;41.844;26.082;2022-07-05T11:03:33;100607.22;;;38.60;18.35
9335;BME280;4706;41.844;26.082;2022-07-05T11:06:01;100599.06;;;38.59;18.18
9335;BME280;4706;41.844;26.082;2022-07-05T11:08:31;100592.03;;;38.75;17.89
9335;BME280;4706;41.844;26.082;2022-07-05T11:11:13;100592.75;;;38.84;18.36
9335;BME280;4706;41.844;26.082;2022-07-05T11:13:40;100576.88;;;38.74;18.35
9335;BME280;4706;41.844;26.082;2022-07-05T11:16:25;100580.84;;;38.92;18.35
9335;BME280;4706;41.844;26.082;2022-07-05T11:18:52;100581.13;;;39.08;18.73
9335;BME280;4706;41.844;26.082;2022-07-05T11:21:22;100586.16;;;39.14;18.46
9335;BME280;4706;41.844;26.082;2022-07-05T11:23:48;100589.06;;;38.69;17.90
9335;BME280;4706;41.844;26.082;2022-07-05T11:26:16;100587.38;;;38.48;18.48
9335;BME280;4706;41.844;26.082;2022-07-05T11:28:45;100593.09;;;38.33;18.67
9335;BME280;4706;41.844;26.082;2022-07-05T11:31:11;100583.06;;;38.28;19.09
9335;BME280;4706;41.844;26.082;2022-07-05T11:33:38;100582.13;;;38.76;18.35
9335;BME280;4706;41.844;26.082;2022-07-05T11:36:07;100579.88;;;39.15;17.79
9335;BME280;4706;41.844;26.082;2022-07-05T11:39:15;100584.69;;;39.03;18.05
9335;BME280;4706;41.844;26.082;2022-07-05T11:41:43;100570.47;;;39.15;18.61
9335;BME280;4706;41.844;26.082;2022-07-05T11:44:10;100571.72;;;38.93;18.85
9335;BME280;4706;41.844;26.082;2022-07-05T11:46:36;100570.03;;;38.42;19.47
9335;BME280;4706;41.844;26.082;2022-07-05T11:49:02;100562.13;;;38.37;19.01
9335;BME280;4706;41.844;26.082;2022-07-05T11:51:29;100567.56;;;38.79;19.49
9335;BME280;4706;41.844;26.082;2022-07-05T11:53:55;100555.16;;;38.73;19.39
9335;BME280;4706;41.844;26.082;2022-07-05T11:56:21;100566.66;;;38.88;19.70
9335;BME280;4706;41.844;26.082;2022-07-05T11:58:47;100570.00;;;38.12;20.71
9335;BME280;4706;41.844;26.082;2022-07-05T12:01:12;100566.50;;;37.70;21.10
9335;BME280;4706;41.844;26.082;2022-07-05T12:03:38;100557.22;;;37.51;21.00
9335;BME280;4706;41.844;26.082;2022-07-05T12:06:13;100560.47;;;37.43;21.55
9335;BME280;4706;41.844;26.082;2022-07-05T12:08:38;100564.34;;;37.31;21.37
9335;BME280;4706;41.844;26.082;2022-07-05T12:11:05;100555.94;;;37.18;21.04
9335;BME280;4706;41.844;26.082;2022-07-05T12:13:50;100549.16;;;37.07;21.38
9335;BME280;4706;41.844;26.082;2022-07-05T12:16:16;100559.06;;;37.06;21.78
9335;BME280;4706;41.844;26.082;2022-07-05T12:18:56;100550.81;;;36.89;21.71
9335;BME280;4706;41.844;26.082;2022-07-05T12:21:23;100546.22;;;36.83;22.51
9335;BME280;4706;41.844;26.082;2022-07-05T12:23:49;100543.59;;;36.61;21.98
9335;BME280;4706;41.844;26.082;2022-07-05T12:26:16;100537.56;;;36.40;22.44
9335;BME280;4706;41.844;26.082;2022-07-05T12:28:43;100530.75;;;36.29;22.80
9335;BME280;4706;41.844;26.082;2022-07-05T12:31:16;100529.66;;;36.26;22.27
9335;BME280;4706;41.844;26.082;2022-07-05T12:33:42;100514.03;;;36.36;22.59
9335;BME280;4706;41.844;26.082;2022-07-05T12:36:15;100529.75;;;36.59;22.37
9335;BME280;4706;41.844;26.082;2022-07-05T12:38:41;100517.03;;;36.51;22.51
9335;BME280;4706;41.844;26.082;2022-07-05T12:41:08;100528.97;;;36.59;23.03
9335;BME280;4706;41.844;26.082;2022-07-05T12:43:51;100519.75;;;36.55;23.13
9335;BME280;4706;41.844;26.082;2022-07-05T12:46:17;100522.44;;;36.58;23.07
9335;BME280;4706;41.844;26.082;2022-07-05T12:48:43;100505.88;;;36.44;23.11
9335;BME280;4706;41.844;26.082;2022-07-05T12:51:10;100517.38;;;36.35;22.97
9335;BME280;4706;41.844;26.082;2022-07-05T12:53:45;100495.31;;;36.26;23.07
9335;BME280;4706;41.844;26.082;2022-07-05T12:56:30;100512.66;;;36.22;23.52
9335;BME280;4706;41.844;26.082;2022-07-05T12:59:13;100506.47;;;36.06;23.49
9335;BME280;4706;41.844;26.082;2022-07-05T13:01:43;100510.75;;;36.10;23.71
9335;BME280;4706;41.844;26.082;2022-07-05T13:04:16;100500.56;;;36.09;22.84
9335;BME280;4706;41.844;26.082;2022-07-05T13:06:50;100497.06;;;36.14;23.66
9335;BME280;4706;41.844;26.082;2022-07-05T13:12:13;100490.38;;;36.27;23.04
9335;BME280;4706;41.844;26.082;2022-07-05T13:14:42;100488.13;;;36.21;23.17